Happy Valentine's Day! 

Flight Track Log - Related Links

Times and Time Zones

All times are in EDT time to prevent confusion due to time zone crossing. See the N9370U flight status page for this flight to view local times or setup timezone preferences in your user account.


Time Position Orientation Groundspeed Altitude Reporting Facility
EDT Latitude Longitude Course Direction KTS MPH feet Rate Location/Type
Sun 02:10:13 PM 40.7167 -73.4333 24° Northeast 97 112 1,500  Level New York TRACON
Sun 02:11:07 PM 40.7333 -73.4500 323° Northwest 107 123 2,100 700 Climbing New York TRACON
Sun 02:12:13 PM 40.7667 -73.4500 360° North 109 125 2,900 667 Climbing New York TRACON
Sun 02:13:13 PM 40.8000 -73.4333 21° North 116 133 3,500 650 Climbing New York TRACON
Sun 02:14:13 PM 40.8333 -73.4000 37° Northeast 118 136 4,200 684 Climbing New York TRACON
Sun 02:15:00 PM 40.9506 -73.2597 24° Northeast  Level FlightAware Approximate
Sun 02:15:07 PM 40.8500 -73.3833 37° Northeast 122 140 4,800  Level New York TRACON
Sun 02:16:07 PM 40.8833 -73.3500 37° Northeast 141 162 5,000 381 Climbing New York TRACON
Sun 02:17:13 PM 40.9167 -73.3333 21° North 128 147 5,600 571 Climbing New York TRACON
Sun 02:18:13 PM 40.9500 -73.3000 37° Northeast 123 142 6,200 600 Climbing New York TRACON
Sun 02:19:13 PM 40.9833 -73.2833 21° North 123 142 6,800 400 Climbing New York TRACON
Sun 02:20:13 PM 41.0000 -73.2500 56° Northeast 144 166 7,000 100 Climbing New York TRACON
Sun 02:21:13 PM 41.0500 -73.2167 27° Northeast 164 189 7,000  Level New York TRACON
Sun 02:22:07 PM 41.0833 -73.2000 21° North 168 193 7,000  Level New York TRACON
Sun 02:23:07 PM 41.1167 -73.1667 37° Northeast 168 193 7,000  Level New York TRACON
Sun 02:24:13 PM 41.1667 -73.1167 37° Northeast 168 193 7,000  Level New York TRACON
Sun 02:25:13 PM 41.2000 -73.0833 37° Northeast 173 199 7,000  Level New York TRACON
Sun 02:26:43 PM 41.2486 -73.0169 46° Northeast 174 200 7,000  Level Boston Center
Sun 02:28:14 PM 41.3050 -72.9514 41° Northeast 173 199 7,000  Level Boston Center
Sun 02:29:09 PM 41.3367 -72.9128 42° Northeast 175 201 7,000  Level Boston Center
Sun 02:30:16 PM 41.3764 -72.8661 41° Northeast 175 201 7,000  Level Boston Center
Sun 02:30:58 PM 41.4036 -72.8358 40° Northeast 175 201 7,000  Level Boston Center
Sun 02:31:59 PM 41.4392 -72.7917 43° Northeast 174 200 7,000  Level Boston Center
Sun 02:33:00 PM 41.4767 -72.7475 41° Northeast 173 199 7,000  Level Boston Center
Sun 02:34:01 PM 41.5122 -72.7061 41° Northeast 174 200 7,000  Level Boston Center
Sun 02:35:02 PM 41.5500 -72.6592 43° Northeast 176 203 7,000  Level Boston Center
Sun 02:36:03 PM 41.5853 -72.6178 41° Northeast 178 205 7,000  Level Boston Center
Sun 02:36:58 PM 41.6189 -72.5761 43° Northeast 175 201 7,000  Level Boston Center
Sun 02:37:59 PM 41.6564 -72.5372 38° Northeast 173 199 7,000  Level Boston Center
Sun 02:39:00 PM 41.7000 -72.5097 25° Northeast 171 197 7,000  Level Boston Center
Sun 02:40:01 PM 41.7336 -72.4653 45° Northeast 172 198 7,000  Level Boston Center
Sun 02:41:01 PM 41.7711 -72.4233 40° Northeast 177 204 7,000  Level Boston Center
Sun 02:42:08 PM 41.8147 -72.3733 41° Northeast 172 198 7,000  Level Boston Center
Sun 02:43:09 PM 41.8503 -72.3314 41° Northeast 174 200 7,000  Level Boston Center
Sun 02:44:10 PM 41.8856 -72.2922 40° Northeast 169 194 7,000  Level Boston Center
Sun 02:45:11 PM 41.9231 -72.2503 40° Northeast 168 193 7,000  Level Boston Center
Sun 02:46:18 PM 41.9667 -72.2000 41° Northeast 173 199 7,000  Level Boston Center
Sun 02:47:19 PM 42.0019 -72.1581 41° Northeast 172 198 7,000 -207 Level Boston Center
Sun 02:48:14 PM 42.0353 -72.1214 39° Northeast 175 201 6,600 -466 Descending Boston Center
Sun 02:49:15 PM 42.0747 -72.0764 40° Northeast 179 206 6,100 -574 Descending Boston Center
Sun 02:50:09 PM 42.1078 -72.0372 41° Northeast 176 203 5,500 -545 Descending Boston Center
Sun 02:51:16 PM 42.1494 -71.9919 39° Northeast 174 200 5,000 -234 Descending Boston Center
Sun 02:52:17 PM 42.1847 -71.9525 40° Northeast 172 198 5,000  Level Boston Center
Sun 02:53:18 PM 42.2219 -71.9075 42° Northeast 168 193 5,000  Level Boston Center
Sun 02:54:19 PM 42.2553 -71.8678 41° Northeast 160 184 5,000  Level Boston Center
Sun 02:55:14 PM 42.2861 -71.8339 39° Northeast 159 183 5,000  Level Boston Center
Sun 02:57:15 PM 42.3500 -71.7500 44° Northeast 160 184 5,000  Level KA90
Sun 02:58:15 PM 42.3833 -71.7000 48° Northeast 164 189 5,000  Level KA90
Sun 02:59:15 PM 42.4167 -71.6500 48° Northeast 164 189 5,000  Level KA90
Sun 03:00:15 PM 42.4333 -71.6000 66° East 167 192 5,000 -150 Level KA90
Sun 03:01:15 PM 42.4667 -71.5500 48° Northeast 169 194 4,700 -400 Descending KA90
Sun 03:02:15 PM 42.5000 -71.5000 48° Northeast 174 200 4,200 -350 Descending KA90
Sun 03:03:15 PM 42.5333 -71.4500 48° Northeast 169 194 4,000 -300 Descending KA90
Sun 03:04:15 PM 42.5500 -71.4000 66° East 166 191 3,600 -500 Descending KA90
Sun 03:05:15 PM 42.5833 -71.3500 48° Northeast 172 198 3,000 -550 Descending KA90
Sun 03:06:15 PM 42.6167 -71.3000 48° Northeast 173 199 2,500 -500 Descending KA90
Sun 03:07:15 PM 42.6500 -71.2500 48° Northeast 169 194 2,000 -400 Descending KA90
Sun 03:08:15 PM 42.6833 -71.2000 48° Northeast 163 188 1,700 -350 Descending KA90
Sun 03:09:15 PM 42.7000 -71.1667 56° Northeast 138 159 1,300 -298 Descending KA90
Sun 03:10:16 PM 42.7333 -71.1333 36° Northeast 127 146 1,100 -298 Descending KA90
Sun 03:11:16 PM 42.7500 -71.1000 56° Northeast 97 112 700 -400 Descending KA90
Sun 03:13:00 PM 42.7167 -71.1167 200° South  Level FlightAware Approximate
Sun 03:20:00 PM 42.7172 -71.1234 200° South  Level Estimated

Login

Don't have an account? Register now (free) for customized features, flight alerts, and more!